Terminal Aerodrome Forecast
Issued by NWS Houston/Galveston, TX

Home | Current Version | Previous Version | Text Only | Print | Product List | Glossary On
Versions: 1 2 3 4 5 6 7 8 9 10 11 12 13 14 15 16 17 18 19 20 21 22 23 24 25 26 27
000
FTUS44 KHGX 291732
TAFCLL
TAF
KCLL 291732Z 2918/3018 26009KT P6SM SCT015 SCT110 SCT250
     FM292000 31007KT P6SM SCT025 SCT120
     FM300000 36011KT P6SM FEW030 BKN120
     FM300500 01012KT P6SM BKN110 BKN200
     FM301600 04009KT P6SM SCT150 OVC200=

USA.gov is the U.S. government's official web portal to all federal, state and local government web resources and services.